Time;durP1;ratioP1;P1;durP2;ratioP2;P2;SDS_P1;SDS_P2;PMS_P1;PMS_P2;Temp;Humidity;BMP_temperature;BMP_pressure;BME280_temperature;BME280_humidity;BME280_pressure;Samples;Min_cycle;Max_cycle;Signal;HPM_P1;HPM_P2
2024/02/05 00:02:26;;;;;;;5.83;3.13;;;;;;;6.13;76.93;99713.16;122761;1102;104287;-78
2024/02/05 00:04:57;;;;;;;5.97;3.10;;;;;;;6.13;76.99;99720.98;122727;1102;104316;-78
2024/02/05 00:07:29;;;;;;;6.93;3.30;;;;;;;6.06;76.40;99725.06;122750;1102;104399;-78
2024/02/05 00:10:00;;;;;;;9.70;4.20;;;;;;;6.04;77.06;99716.27;122722;1105;104255;-77
2024/02/05 00:12:31;;;;;;;8.80;3.57;;;;;;;6.06;76.99;99725.06;122844;1102;104659;-78
2024/02/05 00:15:04;;;;;;;8.07;3.70;;;;;;;6.09;77.62;99733.00;122749;1102;104233;-78
2024/02/05 00:17:35;;;;;;;7.93;3.87;;;;;;;6.12;77.50;99734.82;122797;1102;104360;-77
2024/02/05 00:20:09;;;;;;;9.40;4.00;;;;;;;6.17;77.39;99727.19;122815;1105;104393;-77
2024/02/05 00:22:42;;;;;;;7.87;4.05;;;;;;;6.19;77.53;99722.95;122862;1102;104255;-78
2024/02/05 00:25:13;;;;;;;8.73;4.30;;;;;;;6.19;77.49;99723.84;122754;1105;104708;-78
2024/02/05 00:27:44;;;;;;;11.10;4.50;;;;;;;6.19;77.77;99703.00;122813;1102;104235;-78
2024/02/05 00:30:17;;;;;;;9.83;4.73;;;;;;;6.20;77.55;99707.39;122720;1102;104312;-79
2024/02/05 00:32:49;;;;;;;12.20;4.90;;;;;;;6.20;78.05;99709.08;122795;1101;104239;-80
2024/02/05 00:35:20;;;;;;;11.10;5.20;;;;;;;6.19;77.80;99702.12;122945;1102;104420;-79
2024/02/05 00:37:51;;;;;;;14.20;5.93;;;;;;;6.19;77.85;99683.88;122789;1102;104258;-79
2024/02/05 00:40:22;;;;;;;12.83;6.00;;;;;;;6.20;78.07;99689.16;123043;1102;104290;-79
2024/02/05 00:42:53;;;;;;;14.25;5.80;;;;;;;6.19;78.00;99687.36;122796;1102;105611;-78
2024/02/05 00:45:25;;;;;;;12.23;5.97;;;;;;;6.22;78.13;99691.82;122845;1102;104367;-76
2024/02/05 00:47:57;;;;;;;12.40;5.70;;;;;;;6.23;78.22;99701.39;122837;1102;104284;-77
2024/02/05 00:50:28;;;;;;;12.33;5.20;;;;;;;6.23;78.28;99704.00;122829;1102;104373;-76
2024/02/05 00:52:59;;;;;;;13.47;5.03;;;;;;;6.21;78.43;99701.33;122767;1102;104280;-76
2024/02/05 00:55:31;;;;;;;11.37;4.80;;;;;;;6.19;78.33;99673.46;122754;1102;104300;-76
2024/02/05 00:58:03;;;;;;;11.73;4.60;;;;;;;6.15;78.40;99642.89;122745;1102;104284;-77
2024/02/05 01:00:34;;;;;;;6.90;3.90;;;;;;;6.11;78.40;99611.52;122712;1102;104412;-76
2024/02/05 01:03:05;;;;;;;7.30;3.67;;;;;;;6.01;79.21;99578.11;122710;1102;104328;-77
2024/02/05 01:05:36;;;;;;;8.33;3.80;;;;;;;5.91;79.52;99584.66;122731;1105;104313;-77
2024/02/05 01:08:09;;;;;;;8.33;3.90;;;;;;;5.87;79.03;99595.76;122687;1105;104290;-78
2024/02/05 01:10:40;;;;;;;8.77;4.03;;;;;;;5.90;79.53;99601.09;122753;1105;104273;-77
2024/02/05 01:13:11;;;;;;;6.45;3.60;;;;;;;5.91;79.48;99607.20;122739;1102;104310;-77
2024/02/05 01:15:42;;;;;;;8.53;3.97;;;;;;;5.95;79.21;99603.88;122772;1103;104291;-77
2024/02/05 01:18:13;;;;;;;7.37;3.50;;;;;;;5.99;79.14;99598.01;122853;1105;104354;-77
2024/02/05 01:20:45;;;;;;;6.20;3.73;;;;;;;5.97;79.16;99585.75;122727;1105;104331;-77
2024/02/05 01:23:16;;;;;;;7.73;3.93;;;;;;;5.97;79.19;99578.84;122739;1105;104287;-77
2024/02/05 01:25:48;;;;;;;8.03;3.87;;;;;;;5.96;79.26;99560.52;123049;1105;104354;-77
2024/02/05 01:28:19;;;;;;;8.83;3.90;;;;;;;5.95;79.61;99549.20;122760;1105;104364;-77
2024/02/05 01:30:51;;;;;;;8.00;3.60;;;;;;;5.92;79.40;99549.98;122764;1104;104360;-77
2024/02/05 01:33:23;;;;;;;7.87;4.10;;;;;;;5.93;79.77;99553.47;122958;1105;104482;-76
2024/02/05 01:35:54;;;;;;;7.27;3.90;;;;;;;5.96;79.56;99550.11;122765;1105;104428;-78
2024/02/05 01:38:26;;;;;;;8.60;3.97;;;;;;;5.96;79.41;99537.95;122757;1105;104361;-77
2024/02/05 01:40:57;;;;;;;6.87;3.70;;;;;;;5.96;79.76;99537.95;122669;1105;104389;-78
2024/02/05 01:43:28;;;;;;;7.63;4.07;;;;;;;5.96;80.29;99543.17;122851;1105;104367;-77
2024/02/05 01:45:59;;;;;;;6.60;3.33;;;;;;;5.98;80.01;99557.16;122780;1103;104235;-78
2024/02/05 01:48:34;;;;;;;6.03;3.33;;;;;;;6.01;80.01;99539.05;122771;1103;104261;-77
2024/02/05 01:51:06;;;;;;;6.13;3.63;;;;;;;6.05;79.69;99537.47;122718;1105;104855;-78
2024/02/05 01:53:39;;;;;;;7.53;3.43;;;;;;;6.07;79.80;99552.30;122705;1105;104521;-78
2024/02/05 01:56:11;;;;;;;6.43;3.60;;;;;;;6.08;79.85;99551.48;122856;1105;104236;-78
2024/02/05 01:58:43;;;;;;;8.13;3.80;;;;;;;6.08;79.95;99546.28;122767;1105;104280;-77
2024/02/05 02:01:14;;;;;;;6.07;3.73;;;;;;;6.09;80.01;99542.86;122821;1105;104271;-76
2024/02/05 02:03:48;;;;;;;8.47;3.77;;;;;;;6.10;80.72;99555.03;122939;1104;104374;-78
2024/02/05 02:06:21;;;;;;;10.05;4.35;;;;;;;6.07;80.19;99559.25;122901;1105;104698;-77
2024/02/05 02:08:53;;;;;;;8.33;3.97;;;;;;;6.07;80.12;99544.49;123120;1105;104476;-76
2024/02/05 02:11:25;;;;;;;8.70;3.77;;;;;;;6.11;80.06;99549.00;122985;1105;104246;-79
2024/02/05 02:13:56;;;;;;;8.27;4.43;;;;;;;6.09;79.75;99548.07;122870;1103;104316;-77
2024/02/05 02:16:30;;;;;;;8.30;4.17;;;;;;;6.11;80.37;99543.80;122845;1103;104814;-77
2024/02/05 02:19:04;;;;;;;7.63;3.90;;;;;;;6.13;80.28;99550.79;122720;1102;104399;-77
2024/02/05 02:21:38;;;;;;;7.73;4.13;;;;;;;6.13;80.46;99538.64;122751;1105;104292;-77
2024/02/05 02:24:09;;;;;;;8.07;4.00;;;;;;;6.10;80.17;99530.72;122709;1102;104288;-78
2024/02/05 02:26:40;;;;;;;6.60;3.60;;;;;;;6.10;80.30;99542.00;122825;1102;104264;-77
2024/02/05 02:29:12;;;;;;;8.27;3.90;;;;;;;6.09;80.52;99535.05;122797;1102;104511;-78
2024/02/05 02:31:46;;;;;;;8.43;3.83;;;;;;;6.07;80.62;99535.80;122742;1102;104243;-79
2024/02/05 02:34:27;;;;;;;8.10;4.00;;;;;;;6.07;80.85;99534.08;122759;1105;104396;-77
2024/02/05 02:37:05;;;;;;;8.83;3.90;;;;;;;6.09;80.89;99541.95;122727;1105;104795;-78
2024/02/05 02:39:43;;;;;;;7.90;3.60;;;;;;;6.06;81.58;99547.04;122897;1102;104258;-77
2024/02/05 02:42:16;;;;;;;6.40;3.67;;;;;;;6.05;81.03;99545.29;122845;1102;104343;-77
2024/02/05 02:44:49;;;;;;;6.80;3.40;;;;;;;6.03;80.96;99555.64;122792;1105;104376;-77
2024/02/05 02:47:20;;;;;;;4.50;2.87;;;;;;;6.04;82.05;99567.81;122814;1105;104464;-77
2024/02/05 02:49:51;;;;;;;8.27;3.00;;;;;;;6.04;82.97;99575.63;122779;1102;104296;-78
2024/02/05 02:52:22;;;;;;;3.53;2.10;;;;;;;6.04;84.57;99585.17;122798;1102;104264;-78
2024/02/05 02:54:54;;;;;;;3.20;2.47;;;;;;;6.07;84.85;99583.56;122729;1105;104259;-77
2024/02/05 02:57:25;;;;;;;3.27;2.30;;;;;;;6.07;84.54;99583.56;122764;1105;104310;-77
2024/02/05 02:59:57;;;;;;;4.87;2.70;;;;;;;6.03;84.70;99593.80;122775;1102;104708;-77
2024/02/05 03:02:28;;;;;;;4.40;2.53;;;;;;;5.98;84.79;99572.78;122792;1102;104338;-77
2024/02/05 03:05:00;;;;;;;3.67;1.90;;;;;;;5.93;84.69;99577.78;122906;1102;104290;-77
2024/02/05 03:07:34;;;;;;;6.27;2.60;;;;;;;5.89;85.15;99588.92;122871;1102;104363;-77
2024/02/05 03:10:05;;;;;;;;;;;;;;;5.88;85.78;99584.53;122815;1102;104360;-78
2024/02/05 03:12:36;;;;;;;5.45;2.55;;;;;;;5.84;85.27;99576.53;122779;1102;104238;-78
2024/02/05 03:15:09;;;;;;;3.83;2.50;;;;;;;5.82;86.22;99579.08;122725;1102;104825;-78
2024/02/05 03:17:41;;;;;;;3.12;2.08;;;;;;;5.82;85.96;99578.20;122935;1102;104370;-78
2024/02/05 03:20:31;;;;;;;3.00;2.10;;;;;;;5.81;85.65;99577.29;122839;1102;104398;-78
2024/02/05 03:23:04;;;;;;;3.00;2.43;;;;;;;5.83;85.34;99578.27;122747;1102;104341;-78
2024/02/05 03:25:36;;;;;;;3.13;2.40;;;;;;;5.83;85.63;99577.35;122921;1102;104376;-79
2024/02/05 03:28:08;;;;;;;3.60;2.37;;;;;;;5.83;86.12;99575.66;122847;1102;104239;-77
2024/02/05 03:30:39;;;;;;;3.30;2.33;;;;;;;5.84;86.61;99579.14;122878;1105;104380;-78
2024/02/05 03:33:10;;;;;;;4.75;2.70;;;;;;;5.82;86.32;99570.39;122774;1102;104311;-78
2024/02/05 03:35:42;;;;;;;3.83;2.43;;;;;;;5.81;86.82;99571.20;122916;1105;104536;-77
2024/02/05 03:38:13;;;;;;;4.03;2.47;;;;;;;5.78;87.31;99573.69;122858;1102;104393;-79
2024/02/05 03:40:44;;;;;;;4.23;2.50;;;;;;;5.72;86.69;99550.92;122991;1102;104281;-78
2024/02/05 03:43:15;;;;;;;6.10;2.53;;;;;;;5.71;87.54;99546.53;122902;1102;104396;-77
2024/02/05 03:45:46;;;;;;;4.70;2.60;;;;;;;5.69;87.04;99551.67;122923;1102;104313;-77
2024/02/05 03:48:20;;;;;;;4.75;2.65;;;;;;;5.68;86.52;99538.59;122747;1102;104466;-78
2024/02/05 03:50:51;;;;;;;6.63;2.80;;;;;;;5.68;86.10;99528.19;122897;1103;104392;-78
2024/02/05 03:53:22;;;;;;;4.63;2.57;;;;;;;5.69;86.01;99524.77;122822;1102;104284;-78
2024/02/05 03:55:53;;;;;;;4.03;2.90;;;;;;;5.69;86.49;99536.06;122739;1102;104734;-77
2024/02/05 03:58:24;;;;;;;4.07;2.80;;;;;;;5.70;86.03;99524.83;122788;1102;104354;-78
2024/02/05 04:00:56;;;;;;;6.23;2.80;;;;;;;5.72;85.99;99515.36;122700;1102;104505;-77
2024/02/05 04:03:27;;;;;;;5.93;2.87;;;;;;;5.77;86.05;99492.11;122702;1103;104346;-77
2024/02/05 04:05:58;;;;;;;6.17;3.23;;;;;;;5.82;86.24;99526.13;122743;1102;104331;-78
2024/02/05 04:08:29;;;;;;;7.27;3.00;;;;;;;5.84;86.34;99522.73;122760;1102;104734;-77
2024/02/05 04:11:01;;;;;;;5.67;2.87;;;;;;;5.88;85.81;99518.56;122684;1103;104344;-77
2024/02/05 04:13:32;;;;;;;5.33;3.10;;;;;;;5.91;85.92;99513.47;122705;1102;104383;-78
2024/02/05 04:16:05;;;;;;;6.33;3.20;;;;;;;5.95;86.25;99507.53;122726;1102;104233;-76
2024/02/05 04:18:39;;;;;;;5.77;3.20;;;;;;;5.99;86.26;99508.59;122804;1102;104374;-77
2024/02/05 04:21:09;;;;;;;;;;;;;;;6.02;86.92;99496.56;122804;1102;104268;-78
2024/02/05 04:23:40;;;;;;;6.37;2.90;;;;;;;6.03;86.30;99502.64;122784;1102;104283;-78
2024/02/05 04:26:17;;;;;;;5.13;3.00;;;;;;;6.03;85.96;99500.95;122747;1102;104386;-78
2024/02/05 04:28:49;;;;;;;4.85;3.10;;;;;;;6.06;86.13;99495.86;122836;1105;104265;-77
2024/02/05 04:31:21;;;;;;;7.37;3.80;;;;;;;6.08;86.04;99499.40;122751;1103;104656;-76
2024/02/05 04:33:54;;;;;;;5.40;3.40;;;;;;;6.10;86.03;99486.44;122809;1105;104526;-77
2024/02/05 04:36:25;;;;;;;5.73;3.50;;;;;;;6.10;85.95;99489.91;122900;1103;104284;-76
2024/02/05 04:38:59;;;;;;;5.67;3.43;;;;;;;6.11;86.06;99478.68;122767;1105;104363;-77
2024/02/05 04:41:31;;;;;;;6.77;3.30;;;;;;;6.13;86.03;99489.16;122878;1102;104313;-77
2024/02/05 04:44:02;;;;;;;5.03;3.27;;;;;;;6.13;85.92;99476.13;122780;1102;104657;-77
2024/02/05 04:46:33;;;;;;;5.07;3.27;;;;;;;6.15;86.01;99481.39;122719;1102;104288;-76
2024/02/05 04:49:04;;;;;;;5.43;3.20;;;;;;;6.14;86.11;99482.22;122738;1105;104370;-76
2024/02/05 04:51:35;;;;;;;7.50;3.50;;;;;;;6.15;86.34;99473.58;122797;1103;104293;-77
2024/02/05 04:54:07;;;;;;;6.77;3.73;;;;;;;6.15;86.05;99476.19;122859;1105;104290;-77
2024/02/05 04:56:38;;;;;;;6.97;3.87;;;;;;;6.13;85.99;99472.65;122716;1103;104261;-78
2024/02/05 04:59:09;;;;;;;7.25;3.80;;;;;;;6.11;85.92;99470.86;122844;1102;104840;-77
2024/02/05 05:01:41;;;;;;;6.73;4.00;;;;;;;6.09;86.01;99484.65;122841;1105;104359;-77
2024/02/05 05:04:12;;;;;;;6.60;4.07;;;;;;;6.04;85.93;99479.27;122775;1102;104632;-78
2024/02/05 05:06:43;;;;;;;6.70;3.70;;;;;;;5.99;85.78;99475.61;122802;1102;104275;-78
2024/02/05 05:09:14;;;;;;;7.23;3.27;;;;;;;5.99;86.17;99477.34;122838;1102;104238;-77
2024/02/05 05:11:45;;;;;;;5.70;3.50;;;;;;;5.96;86.20;99472.86;122938;1102;104332;-78
2024/02/05 05:14:17;;;;;;;6.90;4.00;;;;;;;5.96;86.09;99469.38;122842;1101;104341;-77
2024/02/05 05:16:48;;;;;;;9.77;4.23;;;;;;;5.96;86.31;99477.19;122819;1102;104307;-77
2024/02/05 05:19:19;;;;;;;6.43;4.07;;;;;;;5.95;86.35;99473.68;122722;1102;104258;-77
2024/02/05 05:21:50;;;;;;;6.50;3.63;;;;;;;5.92;86.40;99470.95;122879;1103;104262;-77
2024/02/05 05:24:22;;;;;;;7.33;3.60;;;;;;;5.91;86.12;99469.20;122871;1102;104393;-78
2024/02/05 05:26:53;;;;;;;7.35;3.60;;;;;;;5.91;86.26;99471.81;123066;1105;104277;-78
2024/02/05 05:29:24;;;;;;;6.43;3.67;;;;;;;5.91;86.32;99466.60;122739;1102;104338;-78
2024/02/05 05:31:55;;;;;;;9.27;4.10;;;;;;;5.90;86.23;99467.42;122789;1102;104374;-78
2024/02/05 05:34:27;;;;;;;6.17;3.57;;;;;;;5.91;86.46;99469.20;123038;1102;104334;-77
2024/02/05 05:36:58;;;;;;;5.57;3.53;;;;;;;5.93;86.11;99473.62;123024;1102;104254;-77
2024/02/05 05:39:29;;;;;;;6.63;3.50;;;;;;;5.97;86.31;99477.28;123287;1102;117819;-77
2024/02/05 05:42:00;;;;;;;7.75;3.30;;;;;;;6.01;86.34;99462.65;123106;1102;104376;-76
2024/02/05 05:44:32;;;;;;;4.20;3.10;;;;;;;6.04;86.12;99462.77;123063;1102;104290;-76
2024/02/05 05:47:04;;;;;;;5.00;3.00;;;;;;;6.08;86.50;99467.27;123311;1105;104335;-77
2024/02/05 05:49:35;;;;;;;4.43;2.63;;;;;;;6.10;86.54;99471.69;123808;1102;104360;-77
2024/02/05 05:52:07;;;;;;;7.37;2.77;;;;;;;6.12;86.91;99466.53;122896;1105;104395;-77
2024/02/05 05:54:40;;;;;;;5.43;2.60;;;;;;;6.15;86.74;99476.19;123136;1105;104316;-77
2024/02/05 05:57:11;;;;;;;5.37;3.03;;;;;;;6.17;87.23;99472.82;122999;1103;104363;-77
2024/02/05 05:59:42;;;;;;;5.40;2.80;;;;;;;6.19;87.13;99472.88;123098;1103;104386;-77
2024/02/05 06:02:13;;;;;;;8.00;3.10;;;;;;;6.20;87.48;99480.75;123015;1103;104193;-77
2024/02/05 06:04:45;;;;;;;5.50;3.13;;;;;;;6.21;87.79;99476.41;123132;1105;104501;-76
2024/02/05 06:07:16;;;;;;;8.43;3.40;;;;;;;6.19;87.38;99486.78;123297;1105;104347;-77
2024/02/05 06:09:47;;;;;;;5.83;3.70;;;;;;;6.17;87.42;99475.42;123338;1102;104380;-77
2024/02/05 06:12:22;;;;;;;9.00;3.60;;;;;;;6.17;88.34;99472.82;123255;1102;104354;-77
2024/02/05 06:14:53;;;;;;;5.77;3.20;;;;;;;6.15;87.57;99477.06;123473;1102;104255;-78
2024/02/05 06:17:24;;;;;;;5.27;3.43;;;;;;;6.17;87.90;99466.70;123636;1102;104287;-80
2024/02/05 06:19:56;;;;;;;7.07;3.03;;;;;;;6.19;87.93;99465.06;124309;1103;104339;-81
2024/02/05 06:22:27;;;;;;;4.47;3.03;;;;;;;6.20;87.65;99461.61;123901;1102;104262;-81
2024/02/05 06:24:58;;;;;;;7.23;3.17;;;;;;;6.25;87.99;99460.08;123952;1102;104281;-80
2024/02/05 06:27:29;;;;;;;5.60;2.80;;;;;;;6.29;87.74;99454.13;124037;1102;104206;-82
2024/02/05 06:30:01;;;;;;;3.70;2.60;;;;;;;6.35;87.13;99456.08;124147;1102;104345;-83
2024/02/05 06:32:33;;;;;;;4.67;2.60;;;;;;;6.39;87.58;99451.03;124131;1102;102836;-81
2024/02/05 06:35:04;;;;;;;4.93;2.60;;;;;;;6.46;87.97;99458.21;124248;1102;104376;-81
2024/02/05 06:37:36;;;;;;;4.33;2.50;;;;;;;6.53;87.99;99445.39;124159;1102;104357;-81
2024/02/05 06:40:09;;;;;;;4.70;2.10;;;;;;;6.58;87.45;99443.86;123949;1101;104332;-79
2024/02/05 06:42:41;;;;;;;4.50;2.40;;;;;;;6.64;87.65;99442.34;125362;1105;104331;-81
2024/02/05 06:45:13;;;;;;;7.67;3.00;;;;;;;6.71;87.54;99443.42;123833;1105;104290;-81
2024/02/05 06:47:48;;;;;;;4.37;2.10;;;;;;;6.83;87.60;99442.97;124277;1102;104283;-80
2024/02/05 06:50:19;;;;;;;6.30;2.80;;;;;;;6.94;87.58;99448.55;124052;1102;104286;-81
2024/02/05 06:52:53;;;;;;;5.40;2.60;;;;;;;7.06;87.21;99448.95;123845;1102;104297;-80
2024/02/05 06:55:25;;;;;;;4.67;2.10;;;;;;;7.13;87.35;99448.30;124289;1102;104168;-80
2024/02/05 06:57:56;;;;;;;4.83;2.53;;;;;;;7.18;87.18;99451.06;124745;1105;104230;-83
2024/02/05 07:00:28;;;;;;;8.30;2.50;;;;;;;7.22;87.69;99439.02;124266;1102;104290;-83
2024/02/05 07:03:02;;;;;;;8.30;2.20;;;;;;;7.26;87.61;99438.26;124330;1103;104178;-82
2024/02/05 07:05:34;;;;;;;5.35;2.60;;;;;;;7.28;87.40;99431.39;124106;1102;104364;-81
2024/02/05 07:08:06;;;;;;;6.47;2.50;;;;;;;7.30;87.63;99427.09;124550;1102;104236;-81
2024/02/05 07:10:43;;;;;;;4.67;2.30;;;;;;;7.31;87.12;99437.58;124795;1102;104034;-81
2024/02/05 07:13:14;;;;;;;5.60;2.53;;;;;;;7.36;87.39;99424.68;125603;1103;102103;-79
2024/02/05 07:15:46;;;;;;;5.60;2.60;;;;;;;7.40;87.32;99442.19;124261;1102;104274;-82
2024/02/05 07:18:17;;;;;;;7.33;2.60;;;;;;;7.44;87.19;99422.31;124104;1102;102353;-80
2024/02/05 07:20:48;;;;;;;5.37;2.20;;;;;;;7.48;87.14;99426.77;124067;1105;104229;-79
2024/02/05 07:23:21;;;;;;;6.80;2.40;;;;;;;7.54;87.14;99430.47;124116;1102;104174;-79
2024/02/05 07:25:54;;;;;;;5.33;2.70;;;;;;;7.59;87.10;99422.78;124133;1102;104285;-78
2024/02/05 07:28:33;;;;;;;6.10;2.83;;;;;;;7.64;87.27;99400.30;123824;1105;104258;-78
2024/02/05 07:31:05;;;;;;;3.77;2.33;;;;;;;7.70;86.80;99394.38;124411;1105;104274;-79
2024/02/05 07:33:36;;;;;;;6.50;3.00;;;;;;;7.76;87.01;99385.82;124608;1102;104284;-81
2024/02/05 07:36:09;;;;;;;4.57;2.60;;;;;;;7.80;87.01;99365.06;124592;1102;102266;-79
2024/02/05 07:38:43;;;;;;;4.40;2.57;;;;;;;7.85;86.71;99367.80;124160;1102;104264;-80
2024/02/05 07:41:15;;;;;;;6.13;2.70;;;;;;;7.91;87.10;99375.81;124576;1102;104134;-79
2024/02/05 07:43:46;;;;;;;5.63;2.50;;;;;;;7.93;86.40;99381.95;124379;1106;104261;-79
2024/02/05 07:46:22;;;;;;;4.70;2.47;;;;;;;7.98;86.81;99375.16;124343;1103;104139;-80
2024/02/05 07:48:57;;;;;;;4.30;2.53;;;;;;;8.05;86.46;99366.63;124296;1103;104419;-81
2024/02/05 07:51:43;;;;;;;4.95;2.50;;;;;;;8.14;86.45;99375.59;124350;1102;104325;-80
2024/02/05 07:54:19;;;;;;;3.90;2.40;;;;;;;8.25;86.53;99361.08;124384;1105;104211;-80
2024/02/05 07:56:50;;;;;;;5.10;2.50;;;;;;;8.34;86.05;99357.83;125104;1103;104191;-81
2024/02/05 07:59:24;;;;;;;5.63;2.73;;;;;;;8.37;86.58;99368.37;125589;1105;103605;-79
2024/02/05 08:01:56;;;;;;;5.90;2.30;;;;;;;8.44;86.74;99360.73;124310;1102;104408;-78
2024/02/05 08:04:29;;;;;;;7.10;2.27;;;;;;;8.46;86.56;99366.00;124303;1103;104280;-77
2024/02/05 08:07:04;;;;;;;6.73;2.70;;;;;;;8.48;86.46;99361.72;124615;1105;104190;-79
2024/02/05 08:09:43;;;;;;;8.13;2.90;;;;;;;8.60;86.50;99362.03;124439;1105;102949;-78
2024/02/05 08:12:15;;;;;;;9.40;3.20;;;;;;;8.66;86.79;99361.28;124163;1102;104473;-80
2024/02/05 08:14:49;;;;;;;6.87;3.20;;;;;;;8.69;86.79;99358.74;124278;1102;104347;-79
2024/02/05 08:17:25;;;;;;;4.63;2.63;;;;;;;8.83;86.03;99339.90;124883;1102;104187;-79
2024/02/05 08:19:58;;;;;;;4.30;2.60;;;;;;;9.00;86.08;99342.05;125231;1105;102773;-78
2024/02/05 08:22:32;;;;;;;5.50;2.77;;;;;;;9.10;85.89;99337.03;124999;1106;104221;-79
2024/02/05 08:25:03;;;;;;;6.05;2.72;;;;;;;9.10;86.12;99347.50;124895;1105;102139;-78
2024/02/05 08:27:35;;;;;;;6.10;2.80;;;;;;;9.11;85.92;99354.52;124806;1102;104435;-79
2024/02/05 08:30:09;;;;;;;5.17;2.83;;;;;;;9.09;86.08;99358.84;124162;1105;104258;-79
2024/02/05 08:32:41;;;;;;;5.13;2.83;;;;;;;9.15;85.40;99364.22;124313;1102;102290;-79
2024/02/05 08:35:13;;;;;;;6.90;2.90;;;;;;;9.23;86.01;99359.16;124106;1105;104322;-79
2024/02/05 08:37:46;;;;;;;9.00;3.33;;;;;;;9.29;86.04;99356.68;124238;1103;104323;-78
2024/02/05 08:40:19;;;;;;;7.87;2.70;;;;;;;9.41;86.29;99349.09;124026;1103;104252;-77
2024/02/05 08:42:53;;;;;;;9.73;3.03;;;;;;;9.45;86.24;99335.20;124146;1102;102726;-78
2024/02/05 08:45:24;;;;;;;7.17;3.20;;;;;;;9.49;86.08;99338.77;123773;1103;104335;-77
2024/02/05 08:47:55;;;;;;;4.13;2.43;;;;;;;9.51;86.00;99332.72;124026;1102;102450;-79
2024/02/05 08:50:33;;;;;;;3.30;2.07;;;;;;;9.66;85.72;99332.17;124207;1104;104259;-79
2024/02/05 08:53:12;;;;;;;6.50;2.40;;;;;;;9.65;85.12;99335.63;124229;1102;104415;-79
2024/02/05 08:55:44;;;;;;;5.80;2.83;;;;;;;9.67;85.61;99330.42;124234;1105;104270;-79
2024/02/05 08:58:17;;;;;;;4.20;2.50;;;;;;;9.78;85.80;99328.02;124263;1105;104254;-79
2024/02/05 09:00:50;;;;;;;3.87;2.30;;;;;;;9.91;85.48;99335.28;124292;1105;104264;-78
2024/02/05 09:03:21;;;;;;;3.83;2.60;;;;;;;10.06;85.19;99330.31;125947;1105;102994;-80
2024/02/05 09:05:52;;;;;;;5.37;2.60;;;;;;;10.17;84.97;99329.64;126163;1101;102373;-79
2024/02/05 09:08:24;;;;;;;3.97;2.70;;;;;;;10.34;85.20;99324.74;126203;1102;102505;-79
2024/02/05 09:10:55;;;;;;;6.33;2.90;;;;;;;10.51;85.55;99318.04;125552;1102;102409;-79
2024/02/05 09:13:26;;;;;;;5.57;2.67;;;;;;;10.65;85.52;99313.02;124541;1106;104288;-79
2024/02/05 09:15:57;;;;;;;6.63;2.90;;;;;;;10.83;85.12;99308.92;124550;1103;103293;-79
2024/02/05 09:18:29;;;;;;;4.10;2.70;;;;;;;10.92;84.74;99315.22;124519;1103;104179;-81
2024/02/05 09:21:02;;;;;;;4.03;2.53;;;;;;;11.02;84.51;99310.11;124454;1102;104232;-81
2024/02/05 09:23:34;;;;;;;6.87;2.60;;;;;;;11.08;84.93;99307.55;124140;1105;104245;-80
2024/02/05 09:26:05;;;;;;;4.67;2.37;;;;;;;11.10;84.29;99304.09;124621;1102;104294;-82
2024/02/05 09:28:37;;;;;;;3.30;2.30;;;;;;;11.11;83.91;99295.37;124476;1102;104214;-81
2024/02/05 09:31:09;;;;;;;4.63;2.40;;;;;;;11.15;83.89;99284.03;123994;1102;104185;-79
2024/02/05 09:33:40;;;;;;;4.47;2.23;;;;;;;11.17;83.92;99291.92;124221;1102;104175;-82
2024/02/05 09:36:11;;;;;;;3.70;2.40;;;;;;;11.19;83.64;99276.19;124216;1102;104207;-78
2024/02/05 09:38:43;;;;;;;4.03;2.40;;;;;;;11.27;83.92;99275.45;124263;1102;104179;-81
2024/02/05 09:41:25;;;;;;;5.03;2.40;;;;;;;11.29;83.21;99273.70;124396;1105;104267;-80
2024/02/05 09:43:57;;;;;;;5.27;2.70;;;;;;;11.35;83.26;99278.17;123998;1105;104367;-80
2024/02/05 09:46:32;;;;;;;3.60;2.43;;;;;;;11.36;82.61;99272.06;124308;1102;104280;-79
2024/02/05 09:49:05;;;;;;;5.90;2.30;;;;;;;11.44;83.12;99274.80;124678;1102;104166;-80
2024/02/05 09:51:39;;;;;;;4.78;2.60;;;;;;;11.55;83.33;99273.17;124375;1102;104223;-79
2024/02/05 09:54:11;;;;;;;6.08;2.65;;;;;;;11.65;82.71;99268.90;124753;1102;104249;-80
2024/02/05 09:56:44;;;;;;;5.97;2.60;;;;;;;11.73;82.58;99259.34;125011;1105;104300;-79
2024/02/05 09:59:16;;;;;;;5.75;2.42;;;;;;;11.85;82.92;99263.87;124510;1102;104242;-79
2024/02/05 10:01:47;;;;;;;4.13;2.10;;;;;;;11.94;82.49;99258.74;124343;1102;104178;-79
2024/02/05 10:04:21;;;;;;;7.10;2.30;;;;;;;11.97;81.96;99242.13;124167;1102;104204;-79
2024/02/05 10:06:54;;;;;;;3.83;2.37;;;;;;;11.88;81.68;99238.48;124159;1102;104182;-80
2024/02/05 10:09:29;;;;;;;8.70;2.97;;;;;;;11.83;81.78;99227.05;124081;1101;104252;-80
2024/02/05 10:12:03;;;;;;;5.33;2.60;;;;;;;11.84;81.45;99231.45;124018;1102;104261;-80
2024/02/05 10:14:35;;;;;;;5.70;2.57;;;;;;;11.87;81.22;99231.48;124117;1102;104277;-79
2024/02/05 10:17:07;;;;;;;4.80;2.57;;;;;;;11.93;80.78;99229.81;124239;1103;104399;-81
2024/02/05 10:19:39;;;;;;;5.47;2.67;;;;;;;11.98;80.91;99213.23;124205;1102;104169;-78
2024/02/05 10:22:11;;;;;;;7.20;2.20;;;;;;;12.00;80.33;99198.34;124591;1105;104220;-82
2024/02/05 10:24:42;;;;;;;4.67;2.30;;;;;;;12.01;80.13;99201.84;124549;1102;104172;-80
2024/02/05 10:27:19;;;;;;;3.80;2.20;;;;;;;12.05;79.55;99199.25;124439;1102;103193;-81
2024/02/05 10:30:00;;;;;;;3.90;2.53;;;;;;;12.08;79.45;99194.91;124489;1102;103964;-80
2024/02/05 10:32:33;;;;;;;4.93;2.50;;;;;;;12.16;79.24;99199.34;124102;1102;104277;-80
2024/02/05 10:35:04;;;;;;;6.70;2.70;;;;;;;12.26;79.12;99188.91;124137;1102;103177;-80
2024/02/05 10:37:39;;;;;;;5.57;2.60;;;;;;;12.31;78.72;99195.97;124367;1102;104220;-81
2024/02/05 10:40:34;;;;;;;5.87;2.60;;;;;;;12.44;79.02;99196.07;124170;1105;104176;-81
2024/02/05 10:43:10;;;;;;;3.67;2.40;;;;;;;12.53;78.47;99190.88;124194;1102;104287;-78
2024/02/05 10:45:44;;;;;;;5.90;2.60;;;;;;;12.61;78.91;99190.92;124230;1105;117843;-78
2024/02/05 10:48:15;;;;;;;6.78;2.47;;;;;;;12.66;78.93;99197.09;124118;1102;104329;-79
2024/02/05 10:50:47;;;;;;;5.40;2.50;;;;;;;12.71;78.60;99200.63;124155;1105;104325;-78
2024/02/05 10:53:19;;;;;;;4.00;2.57;;;;;;;12.79;79.00;99204.17;124111;1102;104255;-78
2024/02/05 10:55:58;;;;;;;6.77;2.90;;;;;;;12.81;78.57;99205.08;124078;1105;104233;-78
2024/02/05 10:58:31;;;;;;;8.20;2.80;;;;;;;12.81;77.91;99210.34;124438;1102;104274;-80
2024/02/05 11:01:03;;;;;;;4.30;2.58;;;;;;;12.81;78.14;99204.18;124363;1101;104277;-80
2024/02/05 11:03:38;;;;;;;10.40;3.27;;;;;;;12.81;78.16;99215.61;124341;1102;103136;-78
2024/02/05 11:06:15;;;;;;;6.93;3.20;;;;;;;12.80;77.88;99205.07;124284;1102;112196;-79
2024/02/05 11:09:01;;;;;;;6.55;3.05;;;;;;;12.79;77.55;99212.06;124069;1103;104290;-80
2024/02/05 11:11:38;;;;;;;6.53;3.23;;;;;;;12.81;77.32;99212.98;124952;1105;102522;-79
2024/02/05 11:14:17;;;;;;;8.07;3.40;;;;;;;12.85;77.59;99212.10;124908;1102;104214;-80
2024/02/05 11:16:50;;;;;;;6.73;3.13;;;;;;;12.91;77.19;99208.64;124134;1102;104268;-79
2024/02/05 11:19:30;;;;;;;6.78;2.70;;;;;;;12.95;76.77;99205.16;124238;1102;104214;-79
2024/02/05 11:22:12;;;;;;;7.90;3.07;;;;;;;13.02;77.32;99206.94;124278;1102;104288;-80
2024/02/05 11:24:48;;;;;;;6.90;2.90;;;;;;;13.10;77.12;99204.34;124850;1102;101996;-80
2024/02/05 11:27:23;;;;;;;9.77;2.57;;;;;;;13.09;74.38;99200.84;124358;1105;104264;-79
2024/02/05 11:29:56;;;;;;;5.60;2.83;;;;;;;13.10;75.74;99199.07;124168;1105;104306;-80
2024/02/05 11:32:36;;;;;;;5.50;2.40;;;;;;;13.12;74.32;99189.45;124249;1103;104353;-80
2024/02/05 11:35:15;;;;;;;6.23;2.40;;;;;;;13.12;73.24;99186.81;124311;1102;104268;-79
2024/02/05 11:37:47;;;;;;;6.20;2.30;;;;;;;13.09;74.37;99182.41;124307;1102;104385;-80
2024/02/05 11:40:28;;;;;;;3.13;2.30;;;;;;;13.04;73.65;99185.87;124276;1105;104245;-79
2024/02/05 11:43:09;;;;;;;3.73;2.20;;;;;;;13.03;74.22;99181.50;124837;1102;104317;-80
2024/02/05 11:45:43;;;;;;;3.53;2.00;;;;;;;12.94;74.29;99177.93;124314;1102;102945;-80
2024/02/05 11:48:18;;;;;;;4.57;2.00;;;;;;;12.90;73.52;99178.81;124471;1105;104235;-79
2024/02/05 11:50:51;;;;;;;2.10;1.80;;;;;;;12.82;71.46;99177.86;124609;1103;101985;-80